sensor_id;sensor_type;location;lat;lon;timestamp;P1;durP1;ratioP1;P2;durP2;ratioP2
21392;SDS011;10857;52.228;21.026;2022-11-20T00:01:51;80.67;;;34.33;;
21392;SDS011;10857;52.228;21.026;2022-11-20T00:04:18;88.83;;;35.17;;
21392;SDS011;10857;52.228;21.026;2022-11-20T00:06:46;80.47;;;34.13;;
21392;SDS011;10857;52.228;21.026;2022-11-20T00:09:13;81.30;;;33.60;;
21392;SDS011;10857;52.228;21.026;2022-11-20T00:11:40;79.07;;;33.93;;
21392;SDS011;10857;52.228;21.026;2022-11-20T00:14:08;80.43;;;34.83;;
21392;SDS011;10857;52.228;21.026;2022-11-20T00:16:36;76.90;;;33.50;;
21392;SDS011;10857;52.228;21.026;2022-11-20T00:19:04;80.40;;;35.13;;
21392;SDS011;10857;52.228;21.026;2022-11-20T00:21:31;80.27;;;33.30;;
21392;SDS011;10857;52.228;21.026;2022-11-20T00:23:58;77.23;;;33.43;;
21392;SDS011;10857;52.228;21.026;2022-11-20T00:26:26;75.93;;;33.40;;
21392;SDS011;10857;52.228;21.026;2022-11-20T00:28:54;83.90;;;34.60;;
21392;SDS011;10857;52.228;21.026;2022-11-20T00:31:22;80.57;;;34.50;;
21392;SDS011;10857;52.228;21.026;2022-11-20T00:33:50;76.60;;;33.60;;
21392;SDS011;10857;52.228;21.026;2022-11-20T00:36:18;76.43;;;33.60;;
21392;SDS011;10857;52.228;21.026;2022-11-20T00:38:46;78.67;;;33.77;;
21392;SDS011;10857;52.228;21.026;2022-11-20T00:41:14;84.60;;;34.03;;
21392;SDS011;10857;52.228;21.026;2022-11-20T00:43:42;78.70;;;33.67;;
21392;SDS011;10857;52.228;21.026;2022-11-20T00:46:10;79.00;;;33.93;;
21392;SDS011;10857;52.228;21.026;2022-11-20T00:48:39;83.63;;;34.30;;
21392;SDS011;10857;52.228;21.026;2022-11-20T00:51:06;79.27;;;33.77;;
21392;SDS011;10857;52.228;21.026;2022-11-20T00:53:33;78.20;;;33.40;;
21392;SDS011;10857;52.228;21.026;2022-11-20T00:56:02;74.03;;;33.07;;
21392;SDS011;10857;52.228;21.026;2022-11-20T00:58:30;81.93;;;34.23;;
21392;SDS011;10857;52.228;21.026;2022-11-20T01:01:01;73.17;;;32.70;;
21392;SDS011;10857;52.228;21.026;2022-11-20T01:03:30;74.13;;;32.63;;
21392;SDS011;10857;52.228;21.026;2022-11-20T01:06:15;79.97;;;33.37;;
21392;SDS011;10857;52.228;21.026;2022-11-20T01:08:43;81.13;;;33.43;;
21392;SDS011;10857;52.228;21.026;2022-11-20T01:11:12;79.80;;;32.73;;
21392;SDS011;10857;52.228;21.026;2022-11-20T01:13:40;79.10;;;32.77;;
21392;SDS011;10857;52.228;21.026;2022-11-20T01:18:42;75.10;;;31.23;;
21392;SDS011;10857;52.228;21.026;2022-11-20T01:21:20;75.37;;;32.83;;
21392;SDS011;10857;52.228;21.026;2022-11-20T01:23:48;70.07;;;31.17;;
21392;SDS011;10857;52.228;21.026;2022-11-20T01:26:16;76.80;;;31.73;;
21392;SDS011;10857;52.228;21.026;2022-11-20T01:28:44;70.37;;;31.83;;
21392;SDS011;10857;52.228;21.026;2022-11-20T01:31:16;75.63;;;32.83;;
21392;SDS011;10857;52.228;21.026;2022-11-20T01:33:44;76.83;;;32.27;;
21392;SDS011;10857;52.228;21.026;2022-11-20T01:36:11;77.43;;;33.27;;
21392;SDS011;10857;52.228;21.026;2022-11-20T01:38:38;74.50;;;33.03;;
21392;SDS011;10857;52.228;21.026;2022-11-20T01:41:06;82.70;;;33.50;;
21392;SDS011;10857;52.228;21.026;2022-11-20T01:43:34;74.40;;;33.77;;
21392;SDS011;10857;52.228;21.026;2022-11-20T01:46:03;72.37;;;31.90;;
21392;SDS011;10857;52.228;21.026;2022-11-20T01:51:18;77.33;;;33.33;;
21392;SDS011;10857;52.228;21.026;2022-11-20T01:53:46;73.67;;;31.07;;
21392;SDS011;10857;52.228;21.026;2022-11-20T01:56:13;75.03;;;33.37;;
21392;SDS011;10857;52.228;21.026;2022-11-20T01:58:43;76.13;;;32.77;;
21392;SDS011;10857;52.228;21.026;2022-11-20T02:01:12;72.67;;;31.87;;
21392;SDS011;10857;52.228;21.026;2022-11-20T02:03:41;78.80;;;33.67;;
21392;SDS011;10857;52.228;21.026;2022-11-20T02:06:14;77.30;;;33.53;;
21392;SDS011;10857;52.228;21.026;2022-11-20T02:08:44;78.63;;;33.40;;
21392;SDS011;10857;52.228;21.026;2022-11-20T02:11:11;78.00;;;33.30;;
21392;SDS011;10857;52.228;21.026;2022-11-20T02:13:39;71.83;;;32.53;;
21392;SDS011;10857;52.228;21.026;2022-11-20T02:16:14;77.27;;;31.60;;
21392;SDS011;10857;52.228;21.026;2022-11-20T02:18:42;75.63;;;32.93;;
21392;SDS011;10857;52.228;21.026;2022-11-20T02:21:24;74.57;;;32.23;;
21392;SDS011;10857;52.228;21.026;2022-11-20T02:26:25;74.73;;;32.87;;
21392;SDS011;10857;52.228;21.026;2022-11-20T02:28:54;76.83;;;32.83;;
21392;SDS011;10857;52.228;21.026;2022-11-20T02:31:21;74.10;;;33.03;;
21392;SDS011;10857;52.228;21.026;2022-11-20T02:33:53;73.20;;;32.13;;
21392;SDS011;10857;52.228;21.026;2022-11-20T02:36:21;72.60;;;31.77;;
21392;SDS011;10857;52.228;21.026;2022-11-20T02:38:48;70.83;;;31.73;;
21392;SDS011;10857;52.228;21.026;2022-11-20T02:41:16;74.07;;;33.53;;
21392;SDS011;10857;52.228;21.026;2022-11-20T02:43:43;73.67;;;32.03;;
21392;SDS011;10857;52.228;21.026;2022-11-20T02:46:10;70.80;;;32.00;;
21392;SDS011;10857;52.228;21.026;2022-11-20T02:48:38;72.57;;;32.27;;
21392;SDS011;10857;52.228;21.026;2022-11-20T02:51:06;74.13;;;31.03;;
21392;SDS011;10857;52.228;21.026;2022-11-20T02:53:34;74.20;;;31.63;;
21392;SDS011;10857;52.228;21.026;2022-11-20T02:56:01;80.60;;;33.33;;
21392;SDS011;10857;52.228;21.026;2022-11-20T02:58:28;74.50;;;32.63;;
21392;SDS011;10857;52.228;21.026;2022-11-20T03:00:55;82.27;;;32.03;;
21392;SDS011;10857;52.228;21.026;2022-11-20T03:03:23;76.47;;;32.70;;
21392;SDS011;10857;52.228;21.026;2022-11-20T03:05:50;75.40;;;31.03;;
21392;SDS011;10857;52.228;21.026;2022-11-20T03:08:17;77.63;;;33.37;;
21392;SDS011;10857;52.228;21.026;2022-11-20T03:10:45;78.63;;;32.20;;
21392;SDS011;10857;52.228;21.026;2022-11-20T03:13:12;74.83;;;32.90;;
21392;SDS011;10857;52.228;21.026;2022-11-20T03:15:39;76.47;;;32.73;;
21392;SDS011;10857;52.228;21.026;2022-11-20T03:18:07;74.53;;;33.03;;
21392;SDS011;10857;52.228;21.026;2022-11-20T03:20:34;75.27;;;32.47;;
21392;SDS011;10857;52.228;21.026;2022-11-20T03:23:01;76.30;;;31.90;;
21392;SDS011;10857;52.228;21.026;2022-11-20T03:25:28;79.97;;;32.80;;
21392;SDS011;10857;52.228;21.026;2022-11-20T03:27:56;82.40;;;34.43;;
21392;SDS011;10857;52.228;21.026;2022-11-20T03:30:23;74.23;;;32.63;;
21392;SDS011;10857;52.228;21.026;2022-11-20T03:32:56;81.07;;;31.80;;
21392;SDS011;10857;52.228;21.026;2022-11-20T03:35:23;78.47;;;33.73;;
21392;SDS011;10857;52.228;21.026;2022-11-20T03:37:50;83.80;;;33.60;;
21392;SDS011;10857;52.228;21.026;2022-11-20T03:40:17;79.70;;;33.87;;
21392;SDS011;10857;52.228;21.026;2022-11-20T03:42:45;79.53;;;34.33;;
21392;SDS011;10857;52.228;21.026;2022-11-20T03:45:13;84.37;;;35.00;;
21392;SDS011;10857;52.228;21.026;2022-11-20T03:47:40;77.50;;;32.67;;
21392;SDS011;10857;52.228;21.026;2022-11-20T03:50:08;82.47;;;33.60;;
21392;SDS011;10857;52.228;21.026;2022-11-20T03:52:36;79.47;;;33.87;;
21392;SDS011;10857;52.228;21.026;2022-11-20T03:55:03;79.70;;;33.20;;
21392;SDS011;10857;52.228;21.026;2022-11-20T03:57:30;88.03;;;34.20;;
21392;SDS011;10857;52.228;21.026;2022-11-20T03:59:58;75.10;;;31.87;;
21392;SDS011;10857;52.228;21.026;2022-11-20T04:02:25;77.70;;;32.67;;
21392;SDS011;10857;52.228;21.026;2022-11-20T04:04:52;77.27;;;33.53;;
21392;SDS011;10857;52.228;21.026;2022-11-20T04:07:20;76.23;;;32.93;;
21392;SDS011;10857;52.228;21.026;2022-11-20T04:09:47;87.07;;;34.43;;
21392;SDS011;10857;52.228;21.026;2022-11-20T04:12:14;77.20;;;32.60;;
21392;SDS011;10857;52.228;21.026;2022-11-20T04:14:42;81.83;;;33.73;;
21392;SDS011;10857;52.228;21.026;2022-11-20T04:17:09;79.63;;;32.47;;
21392;SDS011;10857;52.228;21.026;2022-11-20T04:19:36;81.50;;;34.63;;
21392;SDS011;10857;52.228;21.026;2022-11-20T04:22:03;86.43;;;34.70;;
21392;SDS011;10857;52.228;21.026;2022-11-20T04:24:31;78.00;;;34.60;;
21392;SDS011;10857;52.228;21.026;2022-11-20T04:26:58;83.57;;;34.93;;
21392;SDS011;10857;52.228;21.026;2022-11-20T04:29:25;82.63;;;35.60;;
21392;SDS011;10857;52.228;21.026;2022-11-20T04:31:52;83.30;;;34.00;;
21392;SDS011;10857;52.228;21.026;2022-11-20T04:34:20;86.00;;;34.03;;
21392;SDS011;10857;52.228;21.026;2022-11-20T04:36:47;85.27;;;35.70;;
21392;SDS011;10857;52.228;21.026;2022-11-20T04:39:14;86.47;;;35.23;;
21392;SDS011;10857;52.228;21.026;2022-11-20T04:41:42;82.50;;;34.80;;
21392;SDS011;10857;52.228;21.026;2022-11-20T04:44:09;82.67;;;34.00;;
21392;SDS011;10857;52.228;21.026;2022-11-20T04:46:38;83.70;;;33.53;;
21392;SDS011;10857;52.228;21.026;2022-11-20T04:49:06;83.23;;;33.87;;
21392;SDS011;10857;52.228;21.026;2022-11-20T04:51:33;84.93;;;34.70;;
21392;SDS011;10857;52.228;21.026;2022-11-20T04:54:01;89.67;;;35.37;;
21392;SDS011;10857;52.228;21.026;2022-11-20T04:56:28;76.77;;;33.67;;
21392;SDS011;10857;52.228;21.026;2022-11-20T04:58:56;82.87;;;34.23;;
21392;SDS011;10857;52.228;21.026;2022-11-20T05:01:26;83.33;;;34.07;;
21392;SDS011;10857;52.228;21.026;2022-11-20T05:03:54;80.47;;;34.47;;
21392;SDS011;10857;52.228;21.026;2022-11-20T05:06:21;82.00;;;33.57;;
21392;SDS011;10857;52.228;21.026;2022-11-20T05:08:48;83.97;;;33.40;;
21392;SDS011;10857;52.228;21.026;2022-11-20T05:11:17;76.77;;;33.53;;
21392;SDS011;10857;52.228;21.026;2022-11-20T05:13:44;77.30;;;31.37;;
21392;SDS011;10857;52.228;21.026;2022-11-20T05:16:13;76.47;;;32.00;;
21392;SDS011;10857;52.228;21.026;2022-11-20T05:18:41;74.50;;;32.47;;
21392;SDS011;10857;52.228;21.026;2022-11-20T05:21:08;77.03;;;32.70;;
21392;SDS011;10857;52.228;21.026;2022-11-20T05:23:36;74.10;;;31.70;;
21392;SDS011;10857;52.228;21.026;2022-11-20T05:26:04;73.40;;;32.20;;
21392;SDS011;10857;52.228;21.026;2022-11-20T05:28:32;80.23;;;32.50;;
21392;SDS011;10857;52.228;21.026;2022-11-20T05:31:06;70.40;;;30.67;;
21392;SDS011;10857;52.228;21.026;2022-11-20T05:33:34;70.83;;;31.67;;
21392;SDS011;10857;52.228;21.026;2022-11-20T05:36:02;72.33;;;32.73;;
21392;SDS011;10857;52.228;21.026;2022-11-20T05:38:30;72.63;;;31.30;;
21392;SDS011;10857;52.228;21.026;2022-11-20T05:41:07;74.73;;;31.97;;
21392;SDS011;10857;52.228;21.026;2022-11-20T05:43:35;74.03;;;31.57;;
21392;SDS011;10857;52.228;21.026;2022-11-20T05:46:03;71.27;;;30.80;;
21392;SDS011;10857;52.228;21.026;2022-11-20T05:48:31;73.67;;;31.70;;
21392;SDS011;10857;52.228;21.026;2022-11-20T05:50:59;76.67;;;32.20;;
21392;SDS011;10857;52.228;21.026;2022-11-20T05:53:26;74.43;;;31.30;;
21392;SDS011;10857;52.228;21.026;2022-11-20T05:56:00;75.03;;;31.73;;
21392;SDS011;10857;52.228;21.026;2022-11-20T05:58:28;76.47;;;32.07;;
21392;SDS011;10857;52.228;21.026;2022-11-20T06:01:02;72.47;;;31.53;;
21392;SDS011;10857;52.228;21.026;2022-11-20T06:03:29;75.93;;;32.50;;
21392;SDS011;10857;52.228;21.026;2022-11-20T06:05:58;69.80;;;30.27;;
21392;SDS011;10857;52.228;21.026;2022-11-20T06:08:25;77.50;;;31.20;;
21392;SDS011;10857;52.228;21.026;2022-11-20T06:10:53;75.23;;;31.30;;
21392;SDS011;10857;52.228;21.026;2022-11-20T06:13:20;71.90;;;30.97;;
21392;SDS011;10857;52.228;21.026;2022-11-20T06:15:53;74.73;;;31.37;;
21392;SDS011;10857;52.228;21.026;2022-11-20T06:18:21;74.97;;;31.23;;
21392;SDS011;10857;52.228;21.026;2022-11-20T06:20:48;71.20;;;30.00;;
21392;SDS011;10857;52.228;21.026;2022-11-20T06:23:15;70.57;;;30.60;;
21392;SDS011;10857;52.228;21.026;2022-11-20T06:25:42;70.47;;;30.57;;
21392;SDS011;10857;52.228;21.026;2022-11-20T06:28:10;79.80;;;31.47;;
21392;SDS011;10857;52.228;21.026;2022-11-20T06:30:37;69.00;;;29.83;;
21392;SDS011;10857;52.228;21.026;2022-11-20T06:33:11;67.20;;;29.20;;
21392;SDS011;10857;52.228;21.026;2022-11-20T06:35:39;70.17;;;29.63;;
21392;SDS011;10857;52.228;21.026;2022-11-20T06:38:06;68.60;;;30.60;;
21392;SDS011;10857;52.228;21.026;2022-11-20T06:40:34;75.97;;;31.27;;
21392;SDS011;10857;52.228;21.026;2022-11-20T06:43:01;73.20;;;31.80;;
21392;SDS011;10857;52.228;21.026;2022-11-20T06:45:28;73.43;;;31.00;;
21392;SDS011;10857;52.228;21.026;2022-11-20T06:47:56;69.33;;;31.63;;
21392;SDS011;10857;52.228;21.026;2022-11-20T06:50:24;73.17;;;30.80;;
21392;SDS011;10857;52.228;21.026;2022-11-20T06:52:51;72.53;;;31.00;;
21392;SDS011;10857;52.228;21.026;2022-11-20T06:55:19;70.53;;;30.77;;
21392;SDS011;10857;52.228;21.026;2022-11-20T06:57:46;72.83;;;31.00;;
21392;SDS011;10857;52.228;21.026;2022-11-20T07:00:18;67.20;;;30.23;;
21392;SDS011;10857;52.228;21.026;2022-11-20T07:02:45;71.57;;;32.37;;
21392;SDS011;10857;52.228;21.026;2022-11-20T07:05:13;71.90;;;31.13;;
21392;SDS011;10857;52.228;21.026;2022-11-20T07:07:40;75.00;;;31.53;;
21392;SDS011;10857;52.228;21.026;2022-11-20T07:10:07;77.00;;;31.07;;
21392;SDS011;10857;52.228;21.026;2022-11-20T07:12:35;74.53;;;31.10;;
21392;SDS011;10857;52.228;21.026;2022-11-20T07:15:02;70.47;;;30.93;;
21392;SDS011;10857;52.228;21.026;2022-11-20T07:17:30;70.97;;;30.70;;
21392;SDS011;10857;52.228;21.026;2022-11-20T07:19:57;70.87;;;31.37;;
21392;SDS011;10857;52.228;21.026;2022-11-20T07:22:24;71.33;;;30.30;;
21392;SDS011;10857;52.228;21.026;2022-11-20T07:24:52;73.47;;;31.27;;
21392;SDS011;10857;52.228;21.026;2022-11-20T07:27:19;73.23;;;31.57;;
21392;SDS011;10857;52.228;21.026;2022-11-20T07:29:47;77.33;;;32.87;;
21392;SDS011;10857;52.228;21.026;2022-11-20T07:32:14;71.93;;;31.00;;
21392;SDS011;10857;52.228;21.026;2022-11-20T07:34:41;73.73;;;31.93;;
21392;SDS011;10857;52.228;21.026;2022-11-20T07:37:09;67.73;;;31.23;;
21392;SDS011;10857;52.228;21.026;2022-11-20T07:39:36;71.80;;;31.17;;
21392;SDS011;10857;52.228;21.026;2022-11-20T07:42:03;70.93;;;34.47;;
21392;SDS011;10857;52.228;21.026;2022-11-20T07:44:31;73.13;;;33.27;;
21392;SDS011;10857;52.228;21.026;2022-11-20T07:46:58;72.13;;;31.43;;
21392;SDS011;10857;52.228;21.026;2022-11-20T07:49:25;73.70;;;31.13;;
21392;SDS011;10857;52.228;21.026;2022-11-20T07:51:53;68.40;;;31.00;;
21392;SDS011;10857;52.228;21.026;2022-11-20T07:54:23;74.13;;;31.83;;
21392;SDS011;10857;52.228;21.026;2022-11-20T07:56:50;81.23;;;32.43;;
21392;SDS011;10857;52.228;21.026;2022-11-20T07:59:18;71.87;;;31.40;;
21392;SDS011;10857;52.228;21.026;2022-11-20T08:01:45;76.53;;;32.67;;
21392;SDS011;10857;52.228;21.026;2022-11-20T08:04:13;68.30;;;31.13;;
21392;SDS011;10857;52.228;21.026;2022-11-20T08:06:42;71.20;;;31.00;;
21392;SDS011;10857;52.228;21.026;2022-11-20T08:09:09;70.60;;;31.60;;
21392;SDS011;10857;52.228;21.026;2022-11-20T08:11:36;70.57;;;31.23;;
21392;SDS011;10857;52.228;21.026;2022-11-20T08:14:22;71.90;;;32.03;;
21392;SDS011;10857;52.228;21.026;2022-11-20T08:16:50;69.93;;;31.80;;
21392;SDS011;10857;52.228;21.026;2022-11-20T08:19:17;71.37;;;32.63;;
21392;SDS011;10857;52.228;21.026;2022-11-20T08:21:46;66.33;;;30.80;;
21392;SDS011;10857;52.228;21.026;2022-11-20T08:24:13;74.47;;;33.23;;
21392;SDS011;10857;52.228;21.026;2022-11-20T08:26:40;74.87;;;32.20;;
21392;SDS011;10857;52.228;21.026;2022-11-20T08:29:08;73.97;;;32.90;;
21392;SDS011;10857;52.228;21.026;2022-11-20T08:31:35;73.60;;;32.87;;
21392;SDS011;10857;52.228;21.026;2022-11-20T08:34:02;71.03;;;32.60;;
21392;SDS011;10857;52.228;21.026;2022-11-20T08:36:34;76.63;;;40.78;;
21392;SDS011;10857;52.228;21.026;2022-11-20T08:39:02;73.82;;;40.30;;
21392;SDS011;10857;52.228;21.026;2022-11-20T08:41:29;76.03;;;35.83;;
21392;SDS011;10857;52.228;21.026;2022-11-20T08:44:00;73.53;;;34.93;;
21392;SDS011;10857;52.228;21.026;2022-11-20T08:46:31;74.60;;;34.67;;
21392;SDS011;10857;52.228;21.026;2022-11-20T08:49:03;71.23;;;33.17;;
21392;SDS011;10857;52.228;21.026;2022-11-20T08:51:31;73.20;;;33.37;;
21392;SDS011;10857;52.228;21.026;2022-11-20T08:53:58;76.17;;;35.17;;
21392;SDS011;10857;52.228;21.026;2022-11-20T08:56:26;76.70;;;34.90;;
21392;SDS011;10857;52.228;21.026;2022-11-20T08:58:53;75.70;;;34.43;;
21392;SDS011;10857;52.228;21.026;2022-11-20T09:01:40;79.50;;;34.27;;
21392;SDS011;10857;52.228;21.026;2022-11-20T09:04:08;74.83;;;33.67;;
21392;SDS011;10857;52.228;21.026;2022-11-20T09:06:35;71.80;;;34.03;;
21392;SDS011;10857;52.228;21.026;2022-11-20T09:09:02;75.97;;;34.30;;
21392;SDS011;10857;52.228;21.026;2022-11-20T09:11:32;73.67;;;34.37;;
21392;SDS011;10857;52.228;21.026;2022-11-20T09:13:59;80.70;;;43.63;;
21392;SDS011;10857;52.228;21.026;2022-11-20T09:16:29;77.60;;;37.20;;
21392;SDS011;10857;52.228;21.026;2022-11-20T09:18:56;75.23;;;36.77;;
21392;SDS011;10857;52.228;21.026;2022-11-20T09:21:43;73.37;;;35.23;;
21392;SDS011;10857;52.228;21.026;2022-11-20T09:24:10;76.10;;;35.80;;
21392;SDS011;10857;52.228;21.026;2022-11-20T09:26:38;76.53;;;35.60;;
21392;SDS011;10857;52.228;21.026;2022-11-20T09:29:05;78.07;;;36.57;;
21392;SDS011;10857;52.228;21.026;2022-11-20T09:31:32;73.37;;;34.37;;
21392;SDS011;10857;52.228;21.026;2022-11-20T09:33:59;69.50;;;33.77;;
21392;SDS011;10857;52.228;21.026;2022-11-20T09:36:27;72.77;;;34.73;;
21392;SDS011;10857;52.228;21.026;2022-11-20T09:38:54;72.80;;;34.37;;
21392;SDS011;10857;52.228;21.026;2022-11-20T09:41:30;72.50;;;35.03;;
21392;SDS011;10857;52.228;21.026;2022-11-20T09:44:11;75.30;;;34.97;;
21392;SDS011;10857;52.228;21.026;2022-11-20T09:46:51;76.83;;;35.50;;
21392;SDS011;10857;52.228;21.026;2022-11-20T09:54:29;73.70;;;35.53;;
21392;SDS011;10857;52.228;21.026;2022-11-20T09:57:05;75.10;;;35.10;;
21392;SDS011;10857;52.228;21.026;2022-11-20T09:59:44;79.67;;;36.33;;
21392;SDS011;10857;52.228;21.026;2022-11-20T10:02:35;75.50;;;35.87;;
21392;SDS011;10857;52.228;21.026;2022-11-20T10:05:18;74.80;;;35.60;;
21392;SDS011;10857;52.228;21.026;2022-11-20T10:08:13;73.20;;;34.80;;
21392;SDS011;10857;52.228;21.026;2022-11-20T10:10:43;74.67;;;34.53;;
21392;SDS011;10857;52.228;21.026;2022-11-20T10:27:56;70.63;;;34.43;;
21392;SDS011;10857;52.228;21.026;2022-11-20T10:30:19;68.07;;;33.40;;
21392;SDS011;10857;52.228;21.026;2022-11-20T10:32:48;71.47;;;35.40;;
21392;SDS011;10857;52.228;21.026;2022-11-20T10:37:46;73.60;;;35.03;;
21392;SDS011;10857;52.228;21.026;2022-11-20T10:40:28;65.57;;;32.80;;
21392;SDS011;10857;52.228;21.026;2022-11-20T10:43:19;69.70;;;34.00;;
21392;SDS011;10857;52.228;21.026;2022-11-20T10:45:47;66.10;;;34.63;;
21392;SDS011;10857;52.228;21.026;2022-11-20T10:48:20;68.93;;;32.87;;
21392;SDS011;10857;52.228;21.026;2022-11-20T10:56:08;66.07;;;33.07;;
21392;SDS011;10857;52.228;21.026;2022-11-20T10:58:50;68.20;;;33.40;;
21392;SDS011;10857;52.228;21.026;2022-11-20T11:01:20;67.27;;;32.97;;
21392;SDS011;10857;52.228;21.026;2022-11-20T11:03:50;68.57;;;32.20;;
21392;SDS011;10857;52.228;21.026;2022-11-20T11:06:28;65.63;;;32.23;;
21392;SDS011;10857;52.228;21.026;2022-11-20T11:08:58;65.53;;;32.37;;
21392;SDS011;10857;52.228;21.026;2022-11-20T11:11:32;68.10;;;32.87;;
21392;SDS011;10857;52.228;21.026;2022-11-20T11:16:33;60.57;;;31.37;;
21392;SDS011;10857;52.228;21.026;2022-11-20T11:19:04;68.93;;;33.47;;
21392;SDS011;10857;52.228;21.026;2022-11-20T11:21:32;63.20;;;32.03;;
21392;SDS011;10857;52.228;21.026;2022-11-20T11:24:00;59.80;;;31.57;;
21392;SDS011;10857;52.228;21.026;2022-11-20T11:27:18;61.97;;;31.67;;
21392;SDS011;10857;52.228;21.026;2022-11-20T11:29:43;65.23;;;31.90;;
21392;SDS011;10857;52.228;21.026;2022-11-20T11:32:20;62.83;;;31.30;;
21392;SDS011;10857;52.228;21.026;2022-11-20T11:35:01;61.87;;;31.17;;
21392;SDS011;10857;52.228;21.026;2022-11-20T11:37:38;58.47;;;30.43;;
21392;SDS011;10857;52.228;21.026;2022-11-20T11:40:06;55.53;;;29.87;;
21392;SDS011;10857;52.228;21.026;2022-11-20T11:43:01;56.47;;;30.00;;
21392;SDS011;10857;52.228;21.026;2022-11-20T11:45:28;58.93;;;29.43;;
21392;SDS011;10857;52.228;21.026;2022-11-20T11:47:57;55.93;;;28.37;;
21392;SDS011;10857;52.228;21.026;2022-11-20T11:50:25;57.53;;;28.53;;
21392;SDS011;10857;52.228;21.026;2022-11-20T11:55:35;61.90;;;30.00;;
21392;SDS011;10857;52.228;21.026;2022-11-20T11:58:09;56.50;;;29.27;;
21392;SDS011;10857;52.228;21.026;2022-11-20T12:00:39;55.67;;;28.80;;
21392;SDS011;10857;52.228;21.026;2022-11-20T12:03:11;60.60;;;29.40;;
21392;SDS011;10857;52.228;21.026;2022-11-20T12:05:40;59.67;;;30.07;;
21392;SDS011;10857;52.228;21.026;2022-11-20T12:08:15;56.73;;;29.73;;
21392;SDS011;10857;52.228;21.026;2022-11-20T12:10:50;64.03;;;31.10;;
21392;SDS011;10857;52.228;21.026;2022-11-20T12:15:46;57.03;;;30.17;;
21392;SDS011;10857;52.228;21.026;2022-11-20T12:18:15;66.07;;;32.70;;
21392;SDS011;10857;52.228;21.026;2022-11-20T12:20:45;67.07;;;32.93;;
21392;SDS011;10857;52.228;21.026;2022-11-20T12:25:42;63.03;;;32.80;;
21392;SDS011;10857;52.228;21.026;2022-11-20T12:28:17;67.00;;;38.60;;
21392;SDS011;10857;52.228;21.026;2022-11-20T12:30:49;70.73;;;35.60;;
21392;SDS011;10857;52.228;21.026;2022-11-20T12:33:35;64.70;;;32.83;;
21392;SDS011;10857;52.228;21.026;2022-11-20T12:41:43;70.07;;;33.57;;
21392;SDS011;10857;52.228;21.026;2022-11-20T12:44:46;70.93;;;33.30;;
21392;SDS011;10857;52.228;21.026;2022-11-20T12:50:31;68.77;;;33.33;;
21392;SDS011;10857;52.228;21.026;2022-11-20T12:53:27;67.30;;;32.27;;
21392;SDS011;10857;52.228;21.026;2022-11-20T12:58:40;66.47;;;32.27;;
21392;SDS011;10857;52.228;21.026;2022-11-20T13:04:12;64.83;;;31.20;;
21392;SDS011;10857;52.228;21.026;2022-11-20T13:06:44;70.13;;;32.33;;
21392;SDS011;10857;52.228;21.026;2022-11-20T13:09:12;73.00;;;33.20;;
21392;SDS011;10857;52.228;21.026;2022-11-20T13:11:45;68.93;;;33.00;;
21392;SDS011;10857;52.228;21.026;2022-11-20T13:14:25;69.80;;;33.03;;
21392;SDS011;10857;52.228;21.026;2022-11-20T13:19:28;68.70;;;34.33;;
21392;SDS011;10857;52.228;21.026;2022-11-20T13:21:56;68.47;;;32.73;;
21392;SDS011;10857;52.228;21.026;2022-11-20T13:24:25;71.93;;;33.47;;
21392;SDS011;10857;52.228;21.026;2022-11-20T13:27:03;73.90;;;33.70;;
21392;SDS011;10857;52.228;21.026;2022-11-20T13:29:31;73.23;;;33.37;;
21392;SDS011;10857;52.228;21.026;2022-11-20T13:32:02;65.53;;;32.27;;
21392;SDS011;10857;52.228;21.026;2022-11-20T13:34:33;69.65;;;37.10;;
21392;SDS011;10857;52.228;21.026;2022-11-20T13:37:02;69.50;;;33.57;;
21392;SDS011;10857;52.228;21.026;2022-11-20T13:39:33;68.63;;;34.13;;
21392;SDS011;10857;52.228;21.026;2022-11-20T13:42:03;73.13;;;33.67;;
21392;SDS011;10857;52.228;21.026;2022-11-20T13:44:53;73.07;;;33.77;;
21392;SDS011;10857;52.228;21.026;2022-11-20T13:47:25;64.27;;;31.67;;
21392;SDS011;10857;52.228;21.026;2022-11-20T13:49:53;70.30;;;31.70;;
21392;SDS011;10857;52.228;21.026;2022-11-20T13:52:38;68.43;;;31.70;;
21392;SDS011;10857;52.228;21.026;2022-11-20T13:58:06;70.00;;;32.70;;
21392;SDS011;10857;52.228;21.026;2022-11-20T14:00:41;71.63;;;33.00;;
21392;SDS011;10857;52.228;21.026;2022-11-20T14:03:20;69.57;;;33.20;;
21392;SDS011;10857;52.228;21.026;2022-11-20T14:06:12;67.93;;;31.70;;
21392;SDS011;10857;52.228;21.026;2022-11-20T14:08:46;71.50;;;32.77;;
21392;SDS011;10857;52.228;21.026;2022-11-20T14:11:20;69.10;;;32.70;;
21392;SDS011;10857;52.228;21.026;2022-11-20T14:16:35;69.23;;;32.20;;
21392;SDS011;10857;52.228;21.026;2022-11-20T14:21:52;68.47;;;32.57;;
21392;SDS011;10857;52.228;21.026;2022-11-20T14:24:20;66.30;;;31.77;;
21392;SDS011;10857;52.228;21.026;2022-11-20T14:26:49;73.70;;;33.50;;
21392;SDS011;10857;52.228;21.026;2022-11-20T14:29:18;69.47;;;33.30;;
21392;SDS011;10857;52.228;21.026;2022-11-20T14:31:46;67.07;;;32.33;;
21392;SDS011;10857;52.228;21.026;2022-11-20T14:34:20;73.73;;;32.10;;
21392;SDS011;10857;52.228;21.026;2022-11-20T14:36:48;66.73;;;32.20;;
21392;SDS011;10857;52.228;21.026;2022-11-20T14:39:21;69.60;;;32.27;;
21392;SDS011;10857;52.228;21.026;2022-11-20T14:41:52;64.53;;;31.10;;
21392;SDS011;10857;52.228;21.026;2022-11-20T14:44:21;66.67;;;32.03;;
21392;SDS011;10857;52.228;21.026;2022-11-20T14:46:51;69.57;;;32.60;;
21392;SDS011;10857;52.228;21.026;2022-11-20T14:49:19;69.67;;;32.57;;
21392;SDS011;10857;52.228;21.026;2022-11-20T14:51:46;70.63;;;32.27;;
21392;SDS011;10857;52.228;21.026;2022-11-20T14:54:25;70.60;;;32.57;;
21392;SDS011;10857;52.228;21.026;2022-11-20T14:56:56;68.47;;;32.93;;
21392;SDS011;10857;52.228;21.026;2022-11-20T14:59:25;69.73;;;32.97;;
21392;SDS011;10857;52.228;21.026;2022-11-20T15:02:03;66.37;;;31.43;;
21392;SDS011;10857;52.228;21.026;2022-11-20T15:04:31;64.37;;;31.17;;
21392;SDS011;10857;52.228;21.026;2022-11-20T15:06:59;67.03;;;32.40;;
21392;SDS011;10857;52.228;21.026;2022-11-20T15:09:26;67.90;;;32.10;;
21392;SDS011;10857;52.228;21.026;2022-11-20T15:11:58;71.47;;;31.67;;
21392;SDS011;10857;52.228;21.026;2022-11-20T15:14:26;70.03;;;33.40;;
21392;SDS011;10857;52.228;21.026;2022-11-20T15:16:54;71.90;;;33.73;;
21392;SDS011;10857;52.228;21.026;2022-11-20T15:19:22;70.83;;;32.77;;
21392;SDS011;10857;52.228;21.026;2022-11-20T15:21:50;73.43;;;33.23;;
21392;SDS011;10857;52.228;21.026;2022-11-20T15:24:18;70.07;;;32.83;;
21392;SDS011;10857;52.228;21.026;2022-11-20T15:26:45;66.93;;;31.67;;
21392;SDS011;10857;52.228;21.026;2022-11-20T15:29:14;71.37;;;32.80;;
21392;SDS011;10857;52.228;21.026;2022-11-20T15:31:47;70.80;;;31.97;;
21392;SDS011;10857;52.228;21.026;2022-11-20T15:34:14;70.57;;;32.70;;
21392;SDS011;10857;52.228;21.026;2022-11-20T15:36:42;75.33;;;33.93;;